Latest Weather Observations for Larapuna (Eddystone Point)

IDT60801

Issued at 9:31 pm EST Friday 22 May 2015 (issued every 30 minutes, with the page automatically refreshed every 10 minutes)

About weather observations | Map of weather stations | Latest weather observations for TAS | Other Formats
Station Details ID: 092045 Name: LARAPUNA (EDDYSTONE POINT) Lat: -40.99 Lon: 148.35 Height: 19.7 m
Data from the previous 72 hours. | See also: Recent months at Larapuna (Eddystone Point)
Date/Time
EST
Temp
°C
App
Temp
°C
Dew
Point
Rel
Hum
%
Delta-T
°C
Wind Press
QNH
hPa
Press
MSL
hPa
Rain
since 9 am
mm
Dir
 
Spd
km/h
Gust
km/h
Spd
kts
Gust
kts
22/09:30pm 7.0 2.1 4.1 82 1.2 WNW 19 20 10 11 1027.6 1027.6 0.0
22/09:00pm 7.6 2.8 4.6 81 1.3 WNW 19 20 10 11 1027.5 1027.5 0.0
22/08:30pm 8.0 3.0 4.6 79 1.5 WNW 20 24 11 13 1027.6 1027.6 0.0
22/08:00pm 8.0 3.6 4.9 81 1.4 NW 17 22 9 12 1027.4 1027.4 0.0
22/07:30pm 7.2 2.8 4.5 83 1.2 WNW 17 20 9 11 1027.3 1027.3 0.0
22/07:00pm 7.4 3.0 4.7 83 1.2 NW 17 19 9 10 1027.3 1027.3 0.0
22/06:30pm 8.3 4.7 5.1 80 1.4 WNW 13 15 7 8 1027.2 1027.2 0.0
22/06:00pm 8.9 5.4 5.3 78 1.6 NW 13 17 7 9 1027.3 1027.3 0.0
22/05:30pm 9.7 6.5 4.9 72 2.2 NW 11 17 6 9 1027.2 1027.2 0.0
22/05:00pm 10.2 6.6 5.0 70 2.3 N 13 17 7 9 1026.8 1026.8 0.0
22/04:30pm 10.6 6.9 4.7 67 2.7 N 13 17 7 9 1026.7 1026.7 0.0
22/04:00pm 11.0 7.7 4.7 65 2.8 NNE 11 17 6 9 1026.8 1026.8 0.0
22/03:30pm 11.5 8.2 4.5 62 3.2 N 11 15 6 8 1026.8 1026.8 0.0
22/03:00pm 11.9 8.6 4.4 60 3.4 N 11 17 6 9 1026.5 1026.5 0.0
22/02:30pm 12.2 9.7 3.7 56 3.8 NE 6 9 3 5 1026.6 1026.6 0.0
22/02:00pm 12.9 10.0 4.6 57 3.8 ENE 9 13 5 7 1026.7 1026.7 0.0
22/01:30pm 12.1 9.1 3.9 57 3.7 ESE 9 13 5 7 1026.8 1026.8 0.0
22/01:00pm 12.1 8.3 4.1 58 3.6 SE 13 17 7 9 1027.2 1027.2 0.0
22/12:30pm 12.1 8.0 4.3 59 3.5 SSE 15 20 8 11 1027.4 1027.4 0.0
22/12:00pm 12.1 8.0 4.1 58 3.6 SSE 15 20 8 11 1027.6 1027.6 0.0
22/11:30am 12.3 7.9 4.8 60 3.4 S 17 20 9 11 1028.0 1028.0 0.0
22/11:00am 12.1 7.1 4.8 61 3.3 S 20 24 11 13 1028.3 1028.4 0.0
22/10:30am 11.5 6.1 4.5 62 3.2 S 22 28 12 15 1028.5 1028.6 0.0
22/10:00am 11.1 5.2 4.1 62 3.1 S 24 30 13 16 1028.4 1028.5 0.0
22/09:30am 10.5 4.7 4.2 65 2.8 S 24 28 13 15 1028.4 1028.5 0.0
22/09:00am 10.2 4.8 4.4 67 2.6 S 22 28 12 15 1028.2 1028.3 0.0
22/08:30am 9.3 4.5 4.5 72 2.1 SSW 19 22 10 12 1028.3 1028.4 0.0
22/08:00am 8.0 2.8 3.8 75 1.8 SSW 20 24 11 13 1028.1 1028.2 0.0
22/07:30am 7.5 2.0 3.9 78 1.5 SW 22 24 12 13 1027.9 1027.9 0.0
22/07:00am 7.7 1.8 3.9 77 1.6 SSW 24 28 13 15 1027.6 1027.6 0.0
22/06:30am 7.6 2.0 3.6 76 1.7 SSW 22 28 12 15 1027.3 1027.3 0.0
22/06:00am 7.6 1.7 4.0 78 1.5 SW 24 26 13 14 1027.1 1027.1 0.0
22/05:30am 7.7 2.2 3.9 77 1.6 SW 22 26 12 14 1027.1 1027.1 0.0
22/05:00am 8.2 2.7 3.9 74 1.8 SSW 22 28 12 15 1027.0 1027.0 0.0
22/04:30am 8.7 2.8 3.9 72 2.1 SW 24 28 13 15 1026.9 1026.9 0.0
22/04:00am 9.6 2.2 4.2 69 2.4 S 32 33 17 18 1026.7 1026.7 0.0
22/03:30am 10.1 2.1 4.0 66 2.7 SSW 35 41 19 22 1026.9 1026.9 0.0
22/03:00am 10.3 2.8 4.2 66 2.7 SSW 33 39 18 21 1027.1 1027.1 0.0
22/02:30am 10.0 3.5 4.6 69 2.4 SSW 28 35 15 19 1027.2 1027.2 0.0
22/02:00am 9.4 2.7 3.8 68 2.4 SW 28 32 15 17 1027.3 1027.3 0.0
22/01:30am 10.0 2.6 4.2 67 2.6 SSW 32 37 17 20 1027.2 1027.2 0.0
22/01:00am 10.0 3.4 4.4 68 2.5 SW 28 35 15 19 1027.2 1027.2 0.0
22/12:30am 9.6 4.1 3.8 67 2.5 SW 22 26 12 14 1027.4 1027.4 0.0
22/12:00am 9.7 4.1 3.7 66 2.6 SW 22 26 12 14 1027.5 1027.5 0.0
 
Date/Time
EST
Temp
°C
App
Temp
°C
Dew
Point
Rel
Hum
%
Delta-T
°C
Wind Press
QNH
hPa
Press
MSL
hPa
Rain
since 9 am
mm
Dir
 
Spd
km/h
Gust
km/h
Spd
kts
Gust
kts
21/11:30pm 10.0 4.2 4.2 67 2.6 SW 24 30 13 16 1027.6 1027.6 0.0
21/11:00pm 10.2 3.6 4.1 66 2.7 SSW 28 32 15 17 1027.6 1027.6 0.0
21/10:30pm 10.2 3.6 4.4 67 2.6 SSW 28 33 15 18 1027.6 1027.6 0.0
21/10:00pm 10.3 4.1 4.5 67 2.6 SW 26 33 14 18 1027.5 1027.5 0.0
21/09:30pm 10.5 3.5 4.2 65 2.8 SW 30 33 16 18 1027.4 1027.4 0.0
21/09:00pm 10.5 3.9 4.2 65 2.8 SSW 28 33 15 18 1027.3 1027.3 0.0
21/08:30pm 10.7 4.1 4.4 65 2.8 SSW 28 35 15 19 1027.0 1027.0 0.0
21/08:00pm 10.8 4.2 4.0 63 3.0 SSW 28 37 15 20 1027.0 1027.0 0.0
21/07:30pm 11.2 4.0 4.9 65 2.9 SSW 32 41 17 22 1026.9 1026.9 0.0
21/07:00pm 11.0 3.6 4.9 66 2.8 SSW 33 39 18 21 1026.6 1026.6 0.0
21/06:30pm 11.0 3.2 4.9 66 2.8 SSW 35 41 19 22 1026.3 1026.3 0.0
21/06:00pm 11.1 3.3 4.8 65 2.8 S 35 44 19 24 1026.1 1026.1 0.0
21/05:30pm 11.3 2.8 5.0 65 2.9 S 39 48 21 26 1025.6 1025.6 0.0
21/05:00pm 11.4 2.1 5.7 68 2.6 S 44 54 24 29 1025.2 1025.2 0.0
21/04:30pm 11.8 3.2 6.3 69 2.6 S 41 46 22 25 1024.9 1024.9 0.0
21/04:00pm 12.0 2.9 6.1 67 2.8 S 43 52 23 28 1024.7 1024.7 0.0
21/03:30pm 12.3 3.1 6.4 67 2.8 S 44 54 24 29 1024.3 1024.3 0.0
21/03:00pm 12.7 3.7 6.3 65 3.0 S 43 50 23 27 1024.1 1024.1 0.0
21/02:30pm 13.0 3.9 6.8 66 3.0 S 44 54 24 29 1023.9 1023.9 0.0
21/02:00pm 13.2 3.6 6.1 62 3.4 S 46 54 25 29 1023.6 1023.6 0.0
21/01:30pm 13.4 4.2 5.6 59 3.7 S 43 50 23 27 1023.6 1023.6 0.0
21/01:00pm 13.5 3.8 5.7 59 3.7 S 46 54 25 29 1023.5 1023.5 0.0
21/12:30pm 13.3 3.4 6.6 64 3.2 S 48 57 26 31 1023.5 1023.5 0.0
21/12:00pm 13.1 3.4 6.0 62 3.3 S 46 57 25 31 1023.6 1023.6 0.0
21/11:30am 13.1 2.8 6.5 64 3.2 S 50 59 27 32 1023.6 1023.6 0.0
21/11:00am 12.9 4.9 7.4 69 2.7 S 39 48 21 26 1024.0 1024.0 0.0
21/10:30am 12.4 4.1 7.9 74 2.2 S 41 48 22 26 1024.0 1024.0 0.0
21/10:00am 11.3 1.9 7.2 76 2.0 S 46 57 25 31 1023.8 1023.8 0.0
21/09:30am 11.3 2.8 6.8 74 2.1 S 41 50 22 27 1023.3 1023.3 0.0
21/09:00am 11.2 3.7 6.3 72 2.3 S 35 44 19 24 1022.9 1022.9 9.6
21/08:30am 11.3 4.2 6.6 73 2.2 S 33 41 18 22 1022.5 1022.5 9.6
21/08:00am 11.1 3.5 5.8 70 2.4 SSE 35 41 19 22 1022.0 1022.0 9.6
21/07:30am 10.6 3.3 5.6 71 2.3 S 33 39 18 21 1021.5 1021.5 9.6
21/07:00am 10.5 2.5 5.7 72 2.2 S 37 44 20 24 1020.9 1020.9 9.6
21/06:30am 10.6 1.8 7.1 79 1.7 S 43 46 23 25 1020.5 1020.5 9.6
21/06:00am 10.8 1.5 7.7 81 1.5 S 46 56 25 30 1019.9 1019.9 9.6
21/05:30am 11.0 3.2 8.2 83 1.4 S 39 46 21 25 1019.5 1019.5 9.6
21/05:00am 11.0 3.1 7.9 81 1.5 SSE 39 44 21 24 1019.2 1019.2 9.6
21/04:30am 11.2 4.1 8.1 81 1.5 SSE 35 43 19 23 1018.7 1018.7 9.6
21/04:00am 11.4 4.0 8.3 81 1.5 SSE 37 41 20 22 1018.4 1018.4 9.6
21/03:30am 11.4 3.8 9.0 85 1.2 S 39 44 21 24 1018.2 1018.2 9.6
21/03:00am 11.7 4.6 9.4 86 1.2 S 37 44 20 24 1017.9 1017.9 9.6
21/02:30am 11.6 5.4 9.5 87 1.1 SSE 32 37 17 20 1017.6 1017.6 9.6
21/02:00am 11.4 5.1 9.7 89 0.9 S 33 39 18 21 1017.3 1017.3 9.6
21/01:30am 11.3 5.0 9.7 90 0.8 S 33 41 18 22 1016.9 1016.9 9.6
21/01:00am 11.4 5.2 10.0 91 0.7 S 33 43 18 23 1016.8 1016.8 9.6
21/12:30am 11.3 6.1 10.2 93 0.6 SSE 28 35 15 19 1016.7 1016.7 9.6
21/12:00am 11.2 5.6 10.1 93 0.6 S 30 33 16 18 1016.7 1016.7 9.4
 
Date/Time
EST
Temp
°C
App
Temp
°C
Dew
Point
Rel
Hum
%
Delta-T
°C
Wind Press
QNH
hPa
Press
MSL
hPa
Rain
since 9 am
mm
Dir
 
Spd
km/h
Gust
km/h
Spd
kts
Gust
kts
20/11:30pm 11.2 5.0 10.1 93 0.6 S 33 41 18 22 1016.7 1016.7 9.4
20/11:00pm 11.4 4.1 10.1 92 0.7 S 39 44 21 24 1016.5 1016.5 9.4
20/10:30pm 11.8 5.3 10.4 91 0.7 S 35 43 19 23 1016.2 1016.2 9.4
20/10:00pm 12.0 5.5 10.4 90 0.8 S 35 43 19 23 1015.9 1015.9 9.4
20/09:30pm 11.9 6.4 10.5 91 0.7 S 30 35 16 19 1015.7 1015.7 9.4
20/09:00pm 11.8 6.7 10.5 92 0.7 S 28 33 15 18 1015.2 1015.2 9.4
20/08:30pm 11.7 6.7 10.8 94 0.5 SSE 28 32 15 17 1014.8 1014.8 9.4
20/08:00pm 11.6 5.8 10.8 95 0.4 S 32 37 17 20 1014.6 1014.6 9.4
20/07:30pm 11.6 5.6 10.7 94 0.5 S 33 39 18 21 1014.3 1014.3 9.2
20/07:00pm 11.7 4.6 10.9 95 0.4 S 39 44 21 24 1014.0 1014.0 9.0
20/06:30pm 12.0 5.0 11.2 95 0.4 S 39 44 21 24 1013.6 1013.6 9.0
20/06:00pm 12.0 4.6 11.2 95 0.4 S 41 44 22 24 1013.2 1013.2 9.0
20/05:30pm 12.1 5.1 11.2 94 0.5 S 39 46 21 25 1012.8 1012.8 9.0
20/05:00pm 12.2 6.0 11.3 94 0.5 S 35 41 19 22 1012.4 1012.4 8.6
20/04:30pm 12.3 6.1 11.4 94 0.5 S 35 43 19 23 1012.0 1012.0 7.6
20/04:00pm 12.3 6.5 11.4 94 0.5 SSE 33 39 18 21 1011.6 1011.6 7.4
20/03:30pm 12.3 6.7 11.4 94 0.5 S 32 35 17 19 1011.4 1011.4 7.4
20/03:00pm 12.5 6.9 11.4 93 0.6 SSE 32 35 17 19 1011.0 1011.0 7.0
20/02:30pm 12.6 7.0 11.5 93 0.6 SSE 32 37 17 20 1010.6 1010.6 6.6
20/02:00pm 12.5 6.8 11.2 92 0.7 SSE 32 39 17 21 1010.3 1010.3 5.8
20/01:30pm 12.5 7.2 11.4 93 0.6 SSE 30 35 16 19 1010.2 1010.2 5.0
20/01:00pm 12.8 8.4 11.7 93 0.6 S 26 35 14 19 1010.3 1010.3 4.0
20/12:30pm 13.0 9.0 11.9 93 0.6 SSE 24 26 13 14 1010.3 1010.3 3.8
20/12:00pm 13.3 11.1 12.2 93 0.6 S 15 20 8 11 1010.3 1010.3 3.4
20/11:30am 13.1 10.9 12.0 93 0.6 S 15 19 8 10 1010.4 1010.4 3.2
20/11:00am 12.8 10.5 11.7 93 0.6 SW 15 17 8 9 1010.7 1010.7 1.8
20/10:30am 13.0 11.9 11.9 93 0.6 W 9 11 5 6 1010.4 1010.4 1.6
20/10:00am 12.9 11.7 11.6 92 0.7 W 9 11 5 6 1010.3 1010.3 1.4
20/09:30am 12.8 11.6 11.5 92 0.7 WSW 9 13 5 7 1009.8 1009.8 0.8
20/09:00am 12.9 12.1 11.6 92 0.7 WSW 7 9 4 5 1009.8 1009.8 0.0
20/08:30am 12.8 12.0 11.7 93 0.6 NW 7 7 4 4 1009.7 1009.7 0.0
20/08:00am 12.6 12.3 11.5 93 0.6 N 4 7 2 4 1009.2 1009.2 0.0
20/07:30am 12.1 10.3 11.0 93 0.6 WNW 11 13 6 7 1008.8 1008.8 0.0
20/07:00am 12.2 10.5 11.1 93 0.6 SW 11 15 6 8 1008.3 1008.3 0.0
20/06:30am 12.1 11.1 11.0 93 0.6 SW 7 13 4 7 1008.1 1008.1 0.0
20/06:00am 12.4 10.0 11.3 93 0.6 NW 15 20 8 11 1007.7 1007.7 0.0
20/05:30am 12.5 10.1 11.4 93 0.6 NW 15 17 8 9 1007.1 1007.1 0.0
20/05:00am 12.8 9.7 11.7 93 0.6 WNW 19 24 10 13 1007.1 1007.1 0.0
20/04:30am 12.8 10.8 11.5 92 0.7 WNW 13 17 7 9 1006.9 1006.9 0.0
20/04:00am 13.0 11.0 11.6 91 0.7 NW 13 17 7 9 1006.8 1006.8 0.0
20/03:30am 13.3 11.4 11.7 90 0.9 WNW 13 19 7 10 1006.7 1006.7 0.0
20/03:00am 13.7 10.6 12.1 90 0.9 WNW 20 30 11 16 1006.6 1006.6 0.0
20/02:30am 13.7 10.7 12.1 90 0.9 WNW 19 26 10 14 1006.5 1006.5 0.0
20/02:00am 13.9 10.4 12.1 89 1.0 WNW 22 35 12 19 1006.5 1006.5 0.0
20/01:30am 14.1 9.4 12.1 88 1.1 WNW 28 39 15 21 1006.5 1006.5 0.0
20/01:00am 14.0 10.6 12.4 90 0.9 NW 22 30 12 16 1006.6 1006.6 0.0
20/12:30am 13.7 10.6 12.1 90 0.9 NW 20 28 11 15 1006.7 1006.7 0.0
20/12:00am 13.6 10.4 12.0 90 0.9 NW 20 28 11 15 1006.8 1006.8 0.0
 
Date/Time
EST
Temp
°C
App
Temp
°C
Dew
Point
Rel
Hum
%
Delta-T
°C
Wind Press
QNH
hPa
Press
MSL
hPa
Rain
since 9 am
mm
Dir
 
Spd
km/h
Gust
km/h
Spd
kts
Gust
kts
19/11:30pm 13.6 10.4 12.0 90 0.9 NW 20 26 11 14 1007.0 1007.0 0.0
19/11:00pm 13.4 10.2 11.8 90 0.9 NW 20 26 11 14 1007.0 1007.0 0.0
19/10:30pm 13.6 10.6 12.0 90 0.9 NW 19 24 10 13 1007.2 1007.2 0.0
19/10:00pm 13.7 11.1 12.1 90 0.9 NW 17 24 9 13 1007.2 1007.2 0.0

Other Formats:

Comma delimited format used in spreadsheet applications
http://www.bom.gov.au/fwo/IDT60801/IDT60801.94983.axf

JavaScript Object Notation format (JSON) in row-major order
http://www.bom.gov.au/fwo/IDT60801/IDT60801.94983.json